createdAt,value
2023-04-15T00:00:05.131Z,95641.84
2023-04-15T00:02:41.084Z,95645.78
2023-04-15T00:05:10.034Z,95648.72
2023-04-15T00:07:40.442Z,95643.91
2023-04-15T00:10:09.636Z,95645.84
2023-04-15T00:12:37.738Z,95642.69
2023-04-15T00:15:06.721Z,95651.72
2023-04-15T00:17:34.926Z,95645.94
2023-04-15T00:20:06.413Z,95648.19
2023-04-15T00:22:34.414Z,95653.59
2023-04-15T00:25:04.272Z,95652.88
2023-04-15T00:27:32.342Z,95653.59
2023-04-15T00:30:00.483Z,95650.72
2023-04-15T00:32:29.248Z,95646.53
2023-04-15T00:34:57.614Z,95644.31
2023-04-15T00:37:26.204Z,95645.06
2023-04-15T00:39:54.262Z,95637.22
2023-04-15T00:42:24.084Z,95640.66
2023-04-15T00:44:52.594Z,95633.66
2023-04-15T00:47:22.651Z,95634.81
2023-04-15T00:49:51.094Z,95635.75
2023-04-15T00:52:19.769Z,95637.84
2023-04-15T00:54:47.742Z,95645.91
2023-04-15T00:57:16.045Z,95637.34
2023-04-15T00:59:46.693Z,95647.16
2023-04-15T01:02:14.794Z,95646.75
2023-04-15T01:04:43.734Z,95639.00
2023-04-15T01:07:12.112Z,95640.56
2023-04-15T01:09:40.525Z,95646.84
2023-04-15T01:12:11.453Z,95644.44
2023-04-15T01:14:39.735Z,95641.09
2023-04-15T01:17:09.107Z,95642.97
2023-04-15T01:19:38.013Z,95639.63
2023-04-15T01:22:06.038Z,95641.13
2023-04-15T01:24:35.210Z,95636.81
2023-04-15T01:27:05.655Z,95637.97
2023-04-15T01:29:35.733Z,95638.06
2023-04-15T01:32:04.220Z,95643.63
2023-04-15T01:34:34.281Z,95632.53
2023-04-15T01:37:03.454Z,95641.94
2023-04-15T01:39:31.339Z,95631.69
2023-04-15T01:41:59.301Z,95639.84
2023-04-15T01:44:28.710Z,95642.66
2023-04-15T01:46:56.626Z,95636.69
2023-04-15T01:49:24.969Z,95641.94
2023-04-15T01:51:55.188Z,95636.28
2023-04-15T01:54:23.260Z,95636.41
2023-04-15T01:56:52.780Z,95637.31
2023-04-15T01:59:20.950Z,95645.59
2023-04-15T02:01:50.311Z,95633.34
2023-04-15T02:04:18.180Z,95633.53
2023-04-15T02:06:46.090Z,95635.44
2023-04-15T02:09:14.269Z,95636.66
2023-04-15T02:11:42.169Z,95634.19
2023-04-15T02:14:10.162Z,95638.53
2023-04-15T02:16:38.024Z,95631.22
2023-04-15T02:19:07.992Z,95639.41
2023-04-15T02:21:38.760Z,95633.84
2023-04-15T02:24:07.125Z,95629.19
2023-04-15T02:26:34.967Z,95625.81
2023-04-15T02:29:03.024Z,95628.00
2023-04-15T02:31:34.057Z,95633.75
2023-04-15T02:34:04.315Z,95630.38
2023-04-15T02:36:34.596Z,95630.28
2023-04-15T02:39:02.958Z,95623.09
2023-04-15T02:41:31.364Z,95628.53
2023-04-15T02:44:00.188Z,95620.88
2023-04-15T02:46:29.479Z,95619.28
2023-04-15T02:48:59.829Z,95627.25
2023-04-15T02:51:33.079Z,95630.78
2023-04-15T02:54:01.566Z,95634.94
2023-04-15T02:56:30.257Z,95624.50
2023-04-15T02:58:58.722Z,95631.59
2023-04-15T03:01:27.241Z,95628.34
2023-04-15T03:03:55.269Z,95628.63
2023-04-15T03:06:24.713Z,95625.50
2023-04-15T03:08:53.999Z,95627.19
2023-04-15T03:11:22.773Z,95634.56
2023-04-15T03:13:50.705Z,95640.06
2023-04-15T03:16:28.200Z,95640.00
2023-04-15T03:18:56.262Z,95636.63
2023-04-15T03:21:24.825Z,95635.25
2023-04-15T03:23:54.250Z,95637.09
2023-04-15T03:26:27.216Z,95640.47
2023-04-15T03:28:55.844Z,95630.31
2023-04-15T03:31:23.765Z,95634.63
2023-04-15T03:33:51.681Z,95621.44
2023-04-15T03:36:19.645Z,95617.19
2023-04-15T03:38:49.413Z,95615.59
2023-04-15T03:41:18.850Z,95619.13
2023-04-15T03:43:46.703Z,95622.78
2023-04-15T03:46:14.590Z,95620.59
2023-04-15T03:48:42.370Z,95627.88
2023-04-15T03:51:10.227Z,95621.91
2023-04-15T03:53:38.119Z,95621.06
2023-04-15T03:56:06.642Z,95623.47
2023-04-15T03:58:35.918Z,95621.72
2023-04-15T04:01:03.863Z,95623.69
2023-04-15T04:03:31.916Z,95623.03
2023-04-15T04:06:01.091Z,95624.69
2023-04-15T04:08:28.858Z,95623.19
2023-04-15T04:10:56.946Z,95625.25
2023-04-15T04:13:24.997Z,95625.06
2023-04-15T04:15:54.673Z,95629.25
2023-04-15T04:18:22.775Z,95627.66
2023-04-15T04:20:50.811Z,95629.31
2023-04-15T04:23:19.525Z,95625.81
2023-04-15T04:25:47.727Z,95633.09
2023-04-15T04:28:15.590Z,95639.22
2023-04-15T04:30:43.805Z,95629.72
2023-04-15T04:33:12.999Z,95637.84
2023-04-15T04:35:40.857Z,95632.34
2023-04-15T04:38:08.700Z,95625.97
2023-04-15T04:40:36.821Z,95633.38
2023-04-15T04:43:04.745Z,95632.44
2023-04-15T04:45:32.557Z,95639.63
2023-04-15T04:48:00.598Z,95636.16
2023-04-15T04:50:29.975Z,95639.50
2023-04-15T04:52:57.733Z,95636.34
2023-04-15T04:55:25.762Z,95639.03
2023-04-15T04:57:53.630Z,95641.94
2023-04-15T05:00:21.568Z,95637.34
2023-04-15T05:02:49.712Z,95643.94
2023-04-15T05:05:17.616Z,95645.91
2023-04-15T05:07:47.336Z,95648.53
2023-04-15T05:10:17.540Z,95642.03
2023-04-15T05:12:45.409Z,95645.75
2023-04-15T05:15:13.260Z,95646.41
2023-04-15T05:17:41.144Z,95653.00
2023-04-15T05:20:09.896Z,95650.38
2023-04-15T05:22:38.204Z,95659.88
2023-04-15T05:25:09.065Z,95653.94
2023-04-15T05:27:37.090Z,95650.00
2023-04-15T05:30:05.549Z,95655.03
2023-04-15T05:32:33.395Z,95659.22
2023-04-15T05:35:01.595Z,95657.81
2023-04-15T05:37:29.461Z,95660.94
2023-04-15T05:39:57.844Z,95662.91
2023-04-15T05:42:27.100Z,95660.44
2023-04-15T05:44:55.594Z,95657.44
2023-04-15T05:47:24.291Z,95657.34
2023-04-15T05:49:52.108Z,95656.56
2023-04-15T05:52:20.008Z,95657.72
2023-04-15T05:54:47.981Z,95660.03
2023-04-15T05:57:15.849Z,95660.38
2023-04-15T05:59:45.082Z,95661.84
2023-04-15T06:02:13.475Z,95657.16
2023-04-15T06:04:41.522Z,95663.66
2023-04-15T06:07:09.535Z,95665.66
2023-04-15T06:09:37.402Z,95661.16
2023-04-15T06:12:06.840Z,95662.22
2023-04-15T06:14:34.720Z,95663.47
2023-04-15T06:17:04.145Z,95653.75
2023-04-15T06:19:32.132Z,95658.66
2023-04-15T06:22:00.472Z,95661.41
2023-04-15T06:24:28.409Z,95664.31
2023-04-15T06:26:56.287Z,95666.19
2023-04-15T06:29:24.146Z,95668.19
2023-04-15T06:31:52.348Z,95666.59
2023-04-15T06:34:21.668Z,95667.84
2023-04-15T06:36:49.597Z,95664.78
2023-04-15T06:39:17.524Z,95661.53
2023-04-15T06:41:45.390Z,95662.66
2023-04-15T06:44:13.689Z,95665.75
2023-04-15T06:46:41.537Z,95668.59
2023-04-15T06:49:09.390Z,95668.13
2023-04-15T06:51:38.633Z,95672.31
2023-04-15T06:54:06.518Z,95672.59
2023-04-15T06:56:34.587Z,95668.13
2023-04-15T06:59:03.661Z,95664.97
2023-04-15T07:01:31.741Z,95666.19
2023-04-15T07:03:59.743Z,95664.66
2023-04-15T07:06:27.743Z,95664.84
2023-04-15T07:08:57.374Z,95672.00
2023-04-15T07:11:27.168Z,95663.09
2023-04-15T07:13:55.723Z,95666.38
2023-04-15T07:16:24.239Z,95663.66
2023-04-15T07:18:52.869Z,95663.78
2023-04-15T07:21:21.413Z,95653.56
2023-04-15T07:23:50.048Z,95654.75
2023-04-15T07:26:20.139Z,95657.66
2023-04-15T07:28:48.900Z,95661.22
2023-04-15T07:31:17.729Z,95658.72
2023-04-15T07:33:46.326Z,95661.31
2023-04-15T07:36:15.562Z,95657.13
2023-04-15T07:38:44.089Z,95657.38
2023-04-15T07:41:13.497Z,95666.19
2023-04-15T07:43:43.241Z,95656.59
2023-04-15T07:46:11.832Z,95659.19
2023-04-15T07:48:40.085Z,95649.84
2023-04-15T07:51:08.665Z,95657.94
2023-04-15T07:53:37.339Z,95650.97
2023-04-15T07:56:06.300Z,95651.16
2023-04-15T07:58:34.320Z,95653.75
2023-04-15T08:01:07.032Z,95649.41
2023-04-15T08:03:35.742Z,95650.56
2023-04-15T08:06:04.364Z,95645.91
2023-04-15T08:08:32.853Z,95650.28
2023-04-15T08:11:00.819Z,95646.22
2023-04-15T08:13:28.738Z,95640.88
2023-04-15T08:16:18.501Z,95647.59
2023-04-15T08:18:46.482Z,95643.75
2023-04-15T08:21:14.888Z,95643.56
2023-04-15T08:23:43.903Z,95645.25
2023-04-15T08:26:12.055Z,95646.38
2023-04-15T08:28:41.551Z,95651.28
2023-04-15T08:31:09.634Z,95644.59
2023-04-15T08:33:38.980Z,95649.91
2023-04-15T08:36:07.564Z,95649.34
2023-04-15T08:38:35.596Z,95649.50
2023-04-15T08:41:08.466Z,95649.63
2023-04-15T08:43:41.572Z,95647.25
2023-04-15T08:46:11.928Z,95646.16
2023-04-15T08:48:41.489Z,95648.63
2023-04-15T08:51:09.901Z,95641.53
2023-04-15T08:53:38.688Z,95649.44
2023-04-15T08:56:08.625Z,95650.28
2023-04-15T08:58:37.168Z,95646.53
2023-04-15T09:01:05.129Z,95658.00
2023-04-15T09:03:34.444Z,95643.69
2023-04-15T09:06:05.795Z,95647.19
2023-04-15T09:08:34.521Z,95650.75
2023-04-15T09:11:02.731Z,95652.41
2023-04-15T09:13:30.965Z,95653.50
2023-04-15T09:15:59.392Z,95664.03
2023-04-15T09:18:31.475Z,95655.53
2023-04-15T09:21:08.946Z,95655.91
2023-04-15T09:23:37.655Z,95657.81
2023-04-15T09:26:07.137Z,95658.94
2023-04-15T09:28:43.166Z,95672.09
2023-04-15T09:31:12.025Z,95675.88
2023-04-15T09:33:57.263Z,95673.66
2023-04-15T09:36:29.676Z,95671.97
2023-04-15T09:38:58.310Z,95676.94
2023-04-15T09:41:26.542Z,95673.84
2023-04-15T09:43:54.621Z,95681.34
2023-04-15T09:46:41.381Z,95675.19
2023-04-15T09:49:10.316Z,95678.44
2023-04-15T09:51:40.151Z,95689.03
2023-04-15T09:54:09.340Z,95693.44
2023-04-15T09:56:38.798Z,95683.09
2023-04-15T09:59:07.013Z,95682.31
2023-04-15T10:01:35.185Z,95691.41
2023-04-15T10:04:05.443Z,95686.41
2023-04-15T10:06:33.761Z,95688.25
2023-04-15T10:09:03.357Z,95686.84
2023-04-15T10:11:31.951Z,95688.31
2023-04-15T10:14:00.320Z,95685.22
2023-04-15T10:16:29.571Z,95693.69
2023-04-15T10:18:58.526Z,95687.88
2023-04-15T10:21:26.468Z,95683.47
2023-04-15T10:23:54.947Z,95688.84
2023-04-15T10:26:25.605Z,95686.97
2023-04-15T10:28:54.844Z,95702.75
2023-04-15T10:31:24.433Z,95702.06
2023-04-15T10:33:53.814Z,95707.47
2023-04-15T10:36:22.340Z,95703.03
2023-04-15T10:38:50.191Z,95704.19
2023-04-15T10:41:21.426Z,95693.31
2023-04-15T10:43:53.380Z,95692.69
2023-04-15T10:46:23.934Z,95712.91
2023-04-15T10:48:52.822Z,95709.19
2023-04-15T10:51:32.739Z,95713.19
2023-04-15T10:54:01.191Z,95709.38
2023-04-15T10:56:32.231Z,95714.41
2023-04-15T10:59:02.582Z,95716.81
2023-04-15T11:01:53.466Z,95715.63
2023-04-15T11:04:53.461Z,95725.34
2023-04-15T11:07:35.907Z,95720.38
2023-04-15T11:10:04.803Z,95719.00
2023-04-15T11:12:36.747Z,95730.91
2023-04-15T11:15:28.868Z,95722.44
2023-04-15T11:17:56.866Z,95718.28
2023-04-15T11:20:25.261Z,95719.97
2023-04-15T11:23:14.729Z,95727.34
2023-04-15T11:25:43.167Z,95739.38
2023-04-15T11:28:12.763Z,95726.88
2023-04-15T11:30:43.440Z,95723.41
2023-04-15T11:33:13.966Z,95732.41
2023-04-15T11:35:43.045Z,95738.16
2023-04-15T11:38:12.960Z,95734.16
2023-04-15T11:40:42.109Z,95737.19
2023-04-15T11:43:12.508Z,95740.72
2023-04-15T11:45:51.446Z,95738.38
2023-04-15T11:48:21.220Z,95747.28
2023-04-15T11:50:55.008Z,95746.31
2023-04-15T11:53:23.461Z,95747.66
2023-04-15T11:55:53.419Z,95751.66
2023-04-15T11:58:23.462Z,95757.59
2023-04-15T12:00:54.086Z,95747.38
2023-04-15T12:03:27.444Z,95762.06
2023-04-15T12:06:10.461Z,95760.81
2023-04-15T12:09:09.294Z,95769.53
2023-04-15T12:11:46.225Z,95769.13
2023-04-15T12:14:21.676Z,95761.19
2023-04-15T12:16:53.950Z,95776.81
2023-04-15T12:19:26.002Z,95776.72
2023-04-15T12:21:55.449Z,95781.44
2023-04-15T12:24:23.970Z,95784.31
2023-04-15T12:26:54.071Z,95778.78
2023-04-15T12:29:26.229Z,95796.13
2023-04-15T12:31:56.857Z,95804.88
2023-04-15T12:34:29.926Z,95806.00
2023-04-15T12:36:59.003Z,95807.53
2023-04-15T12:39:30.501Z,95818.56
2023-04-15T12:41:59.338Z,95809.50
2023-04-15T12:44:28.022Z,95804.41
2023-04-15T12:46:58.807Z,95825.59
2023-04-15T12:49:28.091Z,95809.81
2023-04-15T12:51:56.900Z,95821.22
2023-04-15T12:54:25.014Z,95810.44
2023-04-15T12:56:53.069Z,95808.59
2023-04-15T12:59:21.623Z,95812.00
2023-04-15T13:01:49.868Z,95825.94
2023-04-15T13:04:20.659Z,95826.56
2023-04-15T13:06:49.506Z,95854.25
2023-04-15T13:09:18.504Z,95840.19
2023-04-15T13:11:47.142Z,95848.31
2023-04-15T13:14:14.969Z,95848.31
2023-04-15T13:16:43.847Z,95846.97
2023-04-15T13:19:11.976Z,95863.44
2023-04-15T13:21:41.324Z,95852.38
2023-04-15T13:24:09.756Z,95866.34
2023-04-15T13:26:38.241Z,95870.81
2023-04-15T13:29:06.862Z,95874.09
2023-04-15T13:31:35.553Z,95881.78
2023-04-15T13:34:03.934Z,95893.47
2023-04-15T13:36:32.365Z,95903.63
2023-04-15T13:39:02.590Z,95899.47
2023-04-15T13:41:30.649Z,95912.16
2023-04-15T13:43:58.822Z,95917.34
2023-04-15T13:46:26.860Z,95914.16
2023-04-15T13:48:54.814Z,95915.09
2023-04-15T13:51:22.702Z,95902.19
2023-04-15T13:53:50.609Z,95901.19
2023-04-15T13:56:20.033Z,95911.22
2023-04-15T13:58:47.836Z,95909.13
2023-04-15T14:01:15.728Z,95902.81
2023-04-15T14:03:43.768Z,95903.22
2023-04-15T14:06:12.283Z,95912.53
2023-04-15T14:08:40.617Z,95914.03
2023-04-15T14:11:08.676Z,95917.50
2023-04-15T14:13:37.811Z,95914.97
2023-04-15T14:16:06.617Z,95942.00
2023-04-15T14:18:35.099Z,95928.94
2023-04-15T14:21:03.774Z,95925.47
2023-04-15T14:23:31.860Z,95942.03
2023-04-15T14:25:59.753Z,95932.31
2023-04-15T14:28:27.708Z,95933.88
2023-04-15T14:30:57.166Z,95925.94
2023-04-15T14:33:25.146Z,95926.78
2023-04-15T14:35:53.004Z,95938.19
2023-04-15T14:38:22.682Z,95949.19
2023-04-15T14:40:50.669Z,95947.81
2023-04-15T14:43:19.220Z,95961.34
2023-04-15T14:45:47.050Z,95963.97
2023-04-15T14:48:16.328Z,95971.66
2023-04-15T14:50:44.165Z,95977.19
2023-04-15T14:53:12.360Z,95977.19
2023-04-15T14:55:40.196Z,95981.34
2023-04-15T14:58:09.501Z,95972.88
2023-04-15T15:00:40.508Z,95988.03
2023-04-15T15:03:13.063Z,95978.72
2023-04-15T15:05:44.106Z,95992.50
2023-04-15T15:08:12.980Z,95995.41
2023-04-15T15:10:49.221Z,96008.44
2023-04-15T15:13:19.099Z,96012.50
2023-04-15T15:15:49.757Z,96012.91
2023-04-15T15:18:19.389Z,96009.38
2023-04-15T15:20:49.604Z,96011.06
2023-04-15T15:23:19.212Z,96010.38
2023-04-15T15:25:49.302Z,96020.25
2023-04-15T15:28:17.752Z,96015.94
2023-04-15T15:30:46.327Z,96017.59
2023-04-15T15:33:14.836Z,96027.06
2023-04-15T15:35:43.273Z,96017.88
2023-04-15T15:38:13.710Z,96019.81
2023-04-15T15:40:42.018Z,96018.41
2023-04-15T15:43:10.953Z,96027.63
2023-04-15T15:45:39.453Z,96032.50
2023-04-15T15:48:08.154Z,96028.31
2023-04-15T15:50:36.689Z,96036.91
2023-04-15T15:53:05.093Z,96028.28
2023-04-15T15:55:35.168Z,96033.84
2023-04-15T15:58:03.577Z,96035.78
2023-04-15T16:00:32.127Z,96036.34
2023-04-15T16:05:32.432Z,96038.00
2023-04-15T16:08:00.773Z,96040.34
2023-04-15T16:10:29.357Z,96050.22
2023-04-15T16:12:59.068Z,96041.91
2023-04-15T16:15:27.813Z,96054.56
2023-04-15T16:17:56.153Z,96073.31
2023-04-15T16:20:24.322Z,96056.22
2023-04-15T16:22:52.984Z,96073.34
2023-04-15T16:25:21.526Z,96073.88
2023-04-15T16:27:58.902Z,96083.88
2023-04-15T16:30:33.199Z,96096.63
2023-04-15T16:33:01.110Z,96085.91
2023-04-15T16:35:29.100Z,96098.13
2023-04-15T16:37:57.570Z,96103.63
2023-04-15T16:40:25.474Z,96112.06
2023-04-15T16:42:53.787Z,96118.72
2023-04-15T16:45:21.613Z,96120.66
2023-04-15T16:47:51.097Z,96125.34
2023-04-15T16:50:19.545Z,96126.69
2023-04-15T16:52:48.442Z,96136.53
2023-04-15T16:55:16.976Z,96138.63
2023-04-15T16:58:02.185Z,96134.44
2023-04-15T17:00:32.303Z,96147.69
2023-04-15T17:03:02.038Z,96154.44
2023-04-15T17:05:30.669Z,96151.72
2023-04-15T17:07:58.860Z,96164.66
2023-04-15T17:10:26.977Z,96161.94
2023-04-15T17:12:57.296Z,96156.59
2023-04-15T17:15:26.015Z,96166.06
2023-04-15T17:17:54.276Z,96171.72
2023-04-15T17:20:23.981Z,96169.94
2023-04-15T17:22:52.250Z,96173.81
2023-04-15T17:25:20.147Z,96181.56
2023-04-15T17:27:48.058Z,96199.19
2023-04-15T17:30:16.132Z,96198.72
2023-04-15T17:32:44.943Z,96204.22
2023-04-15T17:35:12.794Z,96207.69
2023-04-15T17:37:42.043Z,96210.97
2023-04-15T17:40:10.804Z,96212.84
2023-04-15T17:42:38.671Z,96215.72
2023-04-15T17:45:07.589Z,96220.72
2023-04-15T17:47:35.816Z,96228.41
2023-04-15T17:50:04.200Z,96234.38
2023-04-15T17:52:32.014Z,96225.66
2023-04-15T17:55:01.230Z,96239.88
2023-04-15T17:57:29.097Z,96236.97
2023-04-15T17:59:57.004Z,96245.94
2023-04-15T18:02:25.100Z,96249.56
2023-04-15T18:04:53.189Z,96250.13
2023-04-15T18:07:21.172Z,96271.41
2023-04-15T18:09:50.689Z,96261.13
2023-04-15T18:12:20.031Z,96259.56
2023-04-15T18:14:48.049Z,96258.69
2023-04-15T18:17:16.182Z,96271.03
2023-04-15T18:19:45.885Z,96270.88
2023-04-15T18:22:13.738Z,96262.75
2023-04-15T18:24:41.554Z,96269.53
2023-04-15T18:27:09.378Z,96274.41
2023-04-15T18:29:38.838Z,96277.97
2023-04-15T18:32:07.129Z,96273.44
2023-04-15T18:34:35.533Z,96277.38
2023-04-15T18:37:03.805Z,96284.22
2023-04-15T18:39:32.215Z,96290.19
2023-04-15T18:42:00.263Z,96290.97
2023-04-15T18:44:28.400Z,96304.53
2023-04-15T18:46:57.568Z,96307.09
2023-04-15T18:49:27.168Z,96297.19
2023-04-15T18:51:55.740Z,96307.72
2023-04-15T18:54:24.452Z,96300.75
2023-04-15T18:56:53.058Z,96311.19
2023-04-15T18:59:29.635Z,96314.16
2023-04-15T19:02:01.361Z,96312.84
2023-04-15T19:04:29.998Z,96314.44
2023-04-15T19:06:59.095Z,96325.09
2023-04-15T19:09:27.509Z,96339.84
2023-04-15T19:11:56.862Z,96333.13
2023-04-15T19:14:24.992Z,96336.47
2023-04-15T19:16:52.933Z,96331.16
2023-04-15T19:19:22.267Z,96338.94
2023-04-15T19:21:50.549Z,96341.75
2023-04-15T19:24:18.813Z,96344.56
2023-04-15T19:26:49.272Z,96358.44
2023-04-15T19:29:17.893Z,96359.41
2023-04-15T19:31:46.697Z,96358.78
2023-04-15T19:34:14.751Z,96359.84
2023-04-15T19:36:44.251Z,96357.88
2023-04-15T19:39:12.730Z,96361.63
2023-04-15T19:41:40.632Z,96363.31
2023-04-15T19:44:09.099Z,96368.06
2023-04-15T19:46:37.298Z,96363.34
2023-04-15T19:49:06.325Z,96371.53
2023-04-15T19:51:35.141Z,96375.34
2023-04-15T19:54:05.340Z,96372.38
2023-04-15T19:56:34.468Z,96378.47
2023-04-15T19:59:02.630Z,96376.50
2023-04-15T20:01:30.674Z,96376.72
2023-04-15T20:03:58.914Z,96375.66
2023-04-15T20:06:27.754Z,96375.97
2023-04-15T20:08:56.069Z,96377.88
2023-04-15T20:12:46.283Z,96379.44
2023-04-15T20:14:17.735Z,96379.66
2023-04-15T20:16:46.027Z,96375.97
2023-04-15T20:19:14.080Z,96379.53
2023-04-15T20:21:41.906Z,96377.78
2023-04-15T20:24:09.940Z,96377.13
2023-04-15T20:26:39.237Z,96371.38
2023-04-15T20:29:08.238Z,96380.91
2023-04-15T20:31:36.978Z,96379.75
2023-04-15T20:34:05.204Z,96379.13
2023-04-15T20:36:34.082Z,96388.63
2023-04-15T20:39:02.831Z,96378.09
2023-04-15T20:41:31.545Z,96379.34
2023-04-15T20:44:01.872Z,96375.66
2023-04-15T20:46:29.997Z,96379.34
2023-04-15T20:48:58.000Z,96389.13
2023-04-15T20:51:27.729Z,96385.34
2023-04-15T20:53:55.672Z,96384.31
2023-04-15T20:56:23.989Z,96380.00
2023-04-15T20:58:52.326Z,96384.31
2023-04-15T21:01:22.123Z,96380.63
2023-04-15T21:03:50.304Z,96382.28
2023-04-15T21:06:18.450Z,96385.38
2023-04-15T21:08:47.194Z,96386.53
2023-04-15T21:11:28.449Z,96389.34
2023-04-15T21:14:03.692Z,96388.38
2023-04-15T21:16:34.056Z,96394.50
2023-04-15T21:19:04.145Z,96397.66
2023-04-15T21:21:32.786Z,96401.44
2023-04-15T21:24:01.330Z,96395.56
2023-04-15T21:26:29.290Z,96407.75
2023-04-15T21:28:57.409Z,96409.44
2023-04-15T21:31:26.028Z,96408.59
2023-04-15T21:33:56.702Z,96415.34
2023-04-15T21:36:25.056Z,96418.28
2023-04-15T21:38:53.631Z,96413.72
2023-04-15T21:41:21.528Z,96415.00
2023-04-15T21:43:50.344Z,96417.84
2023-04-15T21:46:22.892Z,96427.41
2023-04-15T21:48:54.243Z,96432.66
2023-04-15T21:51:24.375Z,96436.13
2023-04-15T21:53:53.116Z,96435.72
2023-04-15T21:56:23.132Z,96434.53
2023-04-15T21:58:51.673Z,96437.59
2023-04-15T22:01:20.408Z,96441.28
2023-04-15T22:03:49.222Z,96436.84
2023-04-15T22:06:18.095Z,96450.81
2023-04-15T22:09:11.358Z,96439.91
2023-04-15T22:11:35.791Z,96443.50
2023-04-15T22:14:05.492Z,96452.53
2023-04-15T22:16:33.676Z,96448.63
2023-04-15T22:19:02.830Z,96452.53
2023-04-15T22:21:31.973Z,96452.13
2023-04-15T22:24:32.195Z,96451.38
2023-04-15T22:26:50.210Z,96458.63
2023-04-15T22:29:18.534Z,96456.28
2023-04-15T22:31:47.088Z,96462.59
2023-04-15T22:34:21.351Z,96461.16
2023-04-15T22:36:50.826Z,96465.66
2023-04-15T22:39:21.467Z,96468.38
2023-04-15T22:41:50.917Z,96472.28
2023-04-15T22:44:19.662Z,96470.91
2023-04-15T22:46:48.147Z,96471.31
2023-04-15T22:49:16.949Z,96473.94
2023-04-15T22:51:45.128Z,96481.81
2023-04-15T22:54:13.510Z,96479.19
2023-04-15T22:56:43.281Z,96473.13
2023-04-15T22:59:11.896Z,96475.00
2023-04-15T23:01:40.480Z,96486.25
2023-04-15T23:04:24.850Z,96483.72
2023-04-15T23:06:56.883Z,96491.81
2023-04-15T23:09:25.162Z,96490.97
2023-04-15T23:11:56.519Z,96484.75
2023-04-15T23:14:26.209Z,96491.06
2023-04-15T23:16:54.759Z,96489.91
2023-04-15T23:19:22.740Z,96487.69
2023-04-15T23:21:51.033Z,96500.81
2023-04-15T23:24:19.300Z,96494.53
2023-04-15T23:26:47.646Z,96501.03
2023-04-15T23:29:17.236Z,96502.53
2023-04-15T23:31:45.186Z,96502.53
2023-04-15T23:34:13.045Z,96502.94
2023-04-15T23:36:41.135Z,96509.00
2023-04-15T23:39:09.231Z,96508.41
2023-04-15T23:41:37.596Z,96505.03
2023-04-15T23:44:05.734Z,96515.53
2023-04-15T23:46:34.994Z,96517.34
2023-04-15T23:49:02.872Z,96509.00
2023-04-15T23:51:30.688Z,96513.88
2023-04-15T23:53:58.583Z,96518.00
2023-04-15T23:56:26.353Z,96514.41
2023-04-15T23:58:54.124Z,96516.91
